Time;durP1;ratioP1;P1;durP2;ratioP2;P2;SDS_P1;SDS_P2;PMS_P1;PMS_P2;Temp;Humidity;BMP_temperature;BMP_pressure;BME280_temperature;BME280_humidity;BME280_pressure;Samples;Min_cycle;Max_cycle;Signal;HPM_P1;HPM_P2
2022/08/17 00:01:44;;;;;;;9.27;8.32;;;;;;;;;;5131735;27;20892;-55
2022/08/17 00:04:11;;;;;;;9.07;8.27;;;;;;;;;;5131940;27;20406;-54
2022/08/17 00:06:37;;;;;;;9.10;8.30;;;;;;;;;;5132015;27;20478;-54
2022/08/17 00:09:04;;;;;;;11.40;8.45;;;;;;;;;;5131453;27;20787;-55
2022/08/17 00:11:31;;;;;;;9.43;8.35;;;;;;;;;;5131856;27;20444;-54
2022/08/17 00:13:58;;;;;;;9.70;8.70;;;;;;;;;;5131427;27;20399;-54
2022/08/17 00:16:30;;;;;;;9.43;8.48;;;;;;;;;;5131650;27;20406;-54
2022/08/17 00:18:57;;;;;;;10.05;9.02;;;;;;;;;;5126599;27;20398;-56
2022/08/17 00:21:24;;;;;;;9.50;8.70;;;;;;;;;;5111245;28;20411;-56
2022/08/17 00:23:50;;;;;;;9.50;8.70;;;;;;;;;;5110990;28;20411;-55
2022/08/17 00:26:17;;;;;;;9.98;9.07;;;;;;;;;;5111056;28;20404;-55
2022/08/17 00:28:43;;;;;;;10.15;9.27;;;;;;;;;;5109726;28;20388;-55
2022/08/17 00:31:09;;;;;;;11.30;10.00;;;;;;;;;;5109596;28;20391;-55
2022/08/17 00:33:36;;;;;;;10.38;9.20;;;;;;;;;;5109269;28;20420;-56
2022/08/17 00:36:05;;;;;;;10.68;9.70;;;;;;;;;;5109660;28;20407;-56
2022/08/17 00:38:31;;;;;;;11.10;10.10;;;;;;;;;;5110863;28;20406;-55
2022/08/17 00:40:58;;;;;;;11.90;10.90;;;;;;;;;;5109160;28;20400;-55
2022/08/17 00:43:26;;;;;;;11.07;10.10;;;;;;;;;;5110310;28;20411;-56
2022/08/17 00:45:53;;;;;;;12.32;11.13;;;;;;;;;;5109203;28;20875;-55
2022/08/17 00:48:19;;;;;;;13.07;11.87;;;;;;;;;;5109672;28;20427;-55
2022/08/17 00:50:49;;;;;;;13.38;12.05;;;;;;;;;;5109871;28;20420;-55
2022/08/17 00:53:16;;;;;;;13.70;12.40;;;;;;;;;;5110126;28;20423;-55
2022/08/17 00:55:42;;;;;;;15.68;14.27;;;;;;;;;;5110035;28;20803;-56
2022/08/17 00:58:09;;;;;;;14.57;13.45;;;;;;;;;;5110510;28;20403;-55
2022/08/17 01:00:36;;;;;;;15.07;13.95;;;;;;;;;;5110950;28;20404;-55
2022/08/17 01:03:05;;;;;;;14.27;13.02;;;;;;;;;;5110606;28;20433;-55
2022/08/17 01:05:32;;;;;;;13.60;12.40;;;;;;;;;;5110122;28;20442;-55
2022/08/17 01:07:58;;;;;;;12.90;11.73;;;;;;;;;;5110179;28;20774;-55
2022/08/17 01:10:29;;;;;;;13.67;12.37;;;;;;;;;;5109861;28;20408;-55
2022/08/17 01:12:55;;;;;;;14.18;12.98;;;;;;;;;;5110449;28;20404;-55
2022/08/17 01:15:22;;;;;;;14.40;13.03;;;;;;;;;;5110566;28;20399;-55
2022/08/17 01:17:48;;;;;;;15.52;13.82;;;;;;;;;;5110358;28;20412;-55
2022/08/17 01:20:15;;;;;;;15.15;13.80;;;;;;;;;;5110662;28;20388;-55
2022/08/17 01:22:43;;;;;;;16.55;15.15;;;;;;;;;;5110636;28;20402;-55
2022/08/17 01:25:11;;;;;;;15.05;13.75;;;;;;;;;;5108542;28;20388;-55
2022/08/17 01:27:37;;;;;;;15.65;14.30;;;;;;;;;;5110658;28;20487;-55
2022/08/17 01:30:06;;;;;;;15.93;14.43;;;;;;;;;;5109295;28;20436;-55
2022/08/17 01:32:32;;;;;;;16.00;14.50;;;;;;;;;;5110648;28;20454;-55
2022/08/17 01:34:59;;;;;;;16.85;15.25;;;;;;;;;;5110416;28;20411;-55
2022/08/17 01:37:28;;;;;;;15.90;14.50;;;;;;;;;;5110189;28;20937;-55
2022/08/17 01:39:59;;;;;;;15.98;14.68;;;;;;;;;;5109230;28;20441;-55
2022/08/17 01:42:29;;;;;;;16.50;14.90;;;;;;;;;;5110393;28;20483;-55
2022/08/17 01:44:58;;;;;;;15.98;14.48;;;;;;;;;;5110635;28;20400;-55
2022/08/17 01:47:24;;;;;;;16.08;14.68;;;;;;;;;;5109036;28;20420;-55
2022/08/17 01:49:50;;;;;;;15.37;14.07;;;;;;;;;;5110350;28;20499;-55
2022/08/17 01:52:16;;;;;;;15.45;14.10;;;;;;;;;;5110349;28;20431;-55
2022/08/17 01:54:44;;;;;;;16.20;14.73;;;;;;;;;;5110276;28;20396;-55
2022/08/17 01:57:12;;;;;;;16.10;14.80;;;;;;;;;;5108482;28;20392;-55
2022/08/17 01:59:38;;;;;;;15.20;13.85;;;;;;;;;;5109700;28;20408;-55
2022/08/17 02:02:06;;;;;;;15.02;13.82;;;;;;;;;;5110151;28;20408;-55
2022/08/17 02:04:32;;;;;;;16.67;15.20;;;;;;;;;;5110219;28;20439;-55
2022/08/17 02:06:58;;;;;;;17.20;15.60;;;;;;;;;;5109228;28;20805;-55
2022/08/17 02:09:25;;;;;;;16.52;15.02;;;;;;;;;;5109700;28;20417;-55
2022/08/17 02:11:51;;;;;;;17.40;16.00;;;;;;;;;;5109788;28;20404;-55
2022/08/17 02:14:18;;;;;;;17.00;15.60;;;;;;;;;;5109488;28;20399;-55
2022/08/17 02:16:44;;;;;;;17.63;15.93;;;;;;;;;;5110196;28;20479;-55
2022/08/17 02:19:11;;;;;;;17.70;16.10;;;;;;;;;;5112438;28;20966;-55
2022/08/17 02:21:38;;;;;;;15.55;14.25;;;;;;;;;;5113376;28;20902;-55
2022/08/17 02:24:04;;;;;;;16.00;14.68;;;;;;;;;;5113507;28;20400;-56
2022/08/17 02:26:30;;;;;;;16.85;15.35;;;;;;;;;;5112385;28;20404;-55
2022/08/17 02:28:56;;;;;;;18.10;16.40;;;;;;;;;;5113214;28;20400;-55
2022/08/17 02:31:23;;;;;;;18.05;16.35;;;;;;;;;;5113195;28;20476;-55
2022/08/17 02:33:49;;;;;;;17.13;15.65;;;;;;;;;;5112252;28;20400;-55
2022/08/17 02:36:15;;;;;;;17.20;15.77;;;;;;;;;;5113375;28;20443;-55
2022/08/17 02:38:41;;;;;;;18.20;16.60;;;;;;;;;;5113346;28;20423;-55
2022/08/17 02:41:08;;;;;;;16.92;15.52;;;;;;;;;;5113248;28;20408;-55
2022/08/17 02:43:34;;;;;;;16.98;15.48;;;;;;;;;;5113288;28;20391;-55
2022/08/17 02:46:00;;;;;;;17.57;15.87;;;;;;;;;;5113448;28;20396;-55
2022/08/17 02:48:28;;;;;;;17.52;15.90;;;;;;;;;;5109178;28;20817;-55
2022/08/17 02:50:54;;;;;;;17.02;15.63;;;;;;;;;;5112787;28;20519;-55
2022/08/17 02:53:20;;;;;;;18.08;16.48;;;;;;;;;;5112548;28;20400;-55
2022/08/17 02:55:46;;;;;;;17.33;15.75;;;;;;;;;;5112911;28;20415;-55
2022/08/17 02:58:12;;;;;;;17.17;15.60;;;;;;;;;;5112071;28;20446;-55
2022/08/17 03:00:43;;;;;;;17.80;16.25;;;;;;;;;;5112749;28;20846;-55
2022/08/17 03:03:09;;;;;;;17.17;15.85;;;;;;;;;;5112699;28;20593;-55
2022/08/17 03:05:37;;;;;;;17.65;16.15;;;;;;;;;;5112405;28;20396;-55
2022/08/17 03:08:04;;;;;;;18.38;16.98;;;;;;;;;;5112324;28;20416;-55
2022/08/17 03:10:31;;;;;;;18.70;17.05;;;;;;;;;;5112085;28;20432;-55
2022/08/17 03:12:58;;;;;;;18.65;17.15;;;;;;;;;;5112089;28;20395;-55
2022/08/17 03:15:26;;;;;;;18.58;16.83;;;;;;;;;;5111571;28;20396;-54
2022/08/17 03:17:52;;;;;;;18.20;16.63;;;;;;;;;;5112464;28;20506;-55
2022/08/17 03:20:19;;;;;;;17.88;16.48;;;;;;;;;;5112238;28;20486;-55
2022/08/17 03:22:47;;;;;;;18.55;17.05;;;;;;;;;;5112520;28;20740;-55
2022/08/17 03:25:14;;;;;;;18.02;16.63;;;;;;;;;;5110947;28;20428;-55
2022/08/17 03:27:40;;;;;;;18.95;17.25;;;;;;;;;;5112288;28;20388;-54
2022/08/17 03:30:07;;;;;;;18.50;17.02;;;;;;;;;;5112016;28;20474;-55
2022/08/17 03:32:36;;;;;;;18.00;16.50;;;;;;;;;;5112032;28;20728;-55
2022/08/17 03:35:02;;;;;;;18.65;17.02;;;;;;;;;;5111965;28;20396;-55
2022/08/17 03:37:28;;;;;;;18.20;16.65;;;;;;;;;;5110970;28;20415;-55
2022/08/17 03:39:55;;;;;;;17.45;15.95;;;;;;;;;;5111641;28;20396;-55
2022/08/17 03:42:23;;;;;;;17.83;16.23;;;;;;;;;;5110862;28;20663;-55
2022/08/17 03:44:49;;;;;;;17.55;15.85;;;;;;;;;;5111721;28;20407;-55
2022/08/17 03:58:15;;;;;;;16.10;14.85;;;;;;;;;;5111787;28;20906;-55
2022/08/17 04:00:45;;;;;;;15.47;14.27;;;;;;;;;;5111452;28;20421;-54
2022/08/17 04:03:11;;;;;;;16.58;15.20;;;;;;;;;;5111495;28;20454;-55
2022/08/17 04:05:37;;;;;;;16.40;15.00;;;;;;;;;;5111267;28;20408;-55
2022/08/17 04:08:03;;;;;;;16.40;15.00;;;;;;;;;;5111331;28;20404;-54
2022/08/17 04:10:30;;;;;;;16.02;14.40;;;;;;;;;;5111367;28;20416;-55
2022/08/17 04:13:00;;;;;;;16.25;14.75;;;;;;;;;;5111372;28;20419;-55
2022/08/17 04:15:26;;;;;;;14.83;13.60;;;;;;;;;;5111228;28;20492;-55
2022/08/17 04:17:52;;;;;;;15.80;14.30;;;;;;;;;;5111237;28;20400;-55
2022/08/17 04:20:20;;;;;;;15.15;13.95;;;;;;;;;;5110923;28;20398;-54
2022/08/17 04:22:55;;;;;;;15.90;14.35;;;;;;;;;;5108998;28;20446;-55
2022/08/17 04:25:22;;;;;;;15.70;14.27;;;;;;;;;;5110287;28;20785;-54
2022/08/17 04:27:49;;;;;;;15.57;14.07;;;;;;;;;;5111096;28;20869;-55
2022/08/17 04:30:15;;;;;;;16.15;14.75;;;;;;;;;;5110860;28;20413;-54
2022/08/17 04:32:54;;;;;;;16.33;14.93;;;;;;;;;;5111003;28;20400;-54
2022/08/17 04:35:22;;;;;;;14.90;13.55;;;;;;;;;;5110778;28;20408;-54
2022/08/17 04:37:49;;;;;;;15.02;13.68;;;;;;;;;;5110409;28;20415;-53
2022/08/17 04:43:02;;;;;;;14.18;13.00;;;;;;;;;;5109699;28;20383;-54
2022/08/17 04:45:28;;;;;;;14.60;13.40;;;;;;;;;;5110783;28;20399;-54
2022/08/17 04:47:54;;;;;;;15.23;13.93;;;;;;;;;;5110655;28;21088;-54
2022/08/17 04:50:20;;;;;;;13.60;12.60;;;;;;;;;;5110482;28;20405;-54
2022/08/17 04:52:46;;;;;;;14.82;13.52;;;;;;;;;;5110792;28;20396;-54
2022/08/17 04:55:12;;;;;;;15.65;14.20;;;;;;;;;;5110589;28;20503;-54
2022/08/17 04:57:38;;;;;;;16.15;14.82;;;;;;;;;;5110319;28;20420;-54
2022/08/17 05:00:07;;;;;;;15.80;14.50;;;;;;;;;;5110598;28;20878;-55
2022/08/17 05:02:34;;;;;;;17.35;15.65;;;;;;;;;;5110158;28;20408;-55
2022/08/17 05:05:00;;;;;;;16.02;14.52;;;;;;;;;;5109607;28;20904;-54
2022/08/17 05:07:26;;;;;;;15.48;14.05;;;;;;;;;;5110206;28;20412;-54
2022/08/17 05:09:52;;;;;;;15.38;14.02;;;;;;;;;;5110449;28;20412;-55
2022/08/17 05:12:18;;;;;;;14.45;13.27;;;;;;;;;;5110237;28;20882;-54
2022/08/17 05:14:44;;;;;;;14.50;13.20;;;;;;;;;;5109349;28;20439;-55
2022/08/17 05:17:12;;;;;;;14.18;12.98;;;;;;;;;;5110501;28;20404;-55
2022/08/17 05:19:38;;;;;;;14.20;13.00;;;;;;;;;;5110260;28;20404;-55
2022/08/17 05:22:04;;;;;;;14.05;12.77;;;;;;;;;;5110596;28;20482;-54
2022/08/17 05:24:30;;;;;;;13.67;12.47;;;;;;;;;;5108988;28;20425;-55
2022/08/17 05:26:56;;;;;;;13.63;12.52;;;;;;;;;;5110273;28;20404;-54
2022/08/17 05:29:22;;;;;;;13.07;11.98;;;;;;;;;;5110200;28;20545;-54
2022/08/17 05:31:48;;;;;;;13.50;12.27;;;;;;;;;;5110400;28;20460;-54
2022/08/17 05:34:15;;;;;;;13.23;12.15;;;;;;;;;;5110282;28;20428;-55
2022/08/17 05:36:41;;;;;;;12.95;11.65;;;;;;;;;;5108535;28;20393;-54
2022/08/17 05:39:07;;;;;;;12.38;11.45;;;;;;;;;;5110722;28;20388;-55
2022/08/17 05:41:33;;;;;;;12.77;11.68;;;;;;;;;;5110294;28;20400;-54
2022/08/17 05:43:59;;;;;;;12.73;11.55;;;;;;;;;;5110212;28;20430;-54
2022/08/17 05:46:26;;;;;;;12.47;11.20;;;;;;;;;;5109763;28;20863;-54
2022/08/17 05:48:53;;;;;;;12.93;11.73;;;;;;;;;;5110143;28;20399;-55
2022/08/17 05:51:40;;;;;;;12.27;11.27;;;;;;;;;;5110072;28;20408;-55
2022/08/17 05:54:17;;;;;;;12.25;11.15;;;;;;;;;;5112919;28;20407;-55
2022/08/17 05:56:55;;;;;;;12.47;11.27;;;;;;;;;;5112770;28;20411;-55
2022/08/17 05:59:28;;;;;;;11.98;10.98;;;;;;;;;;5113760;28;20408;-54
2022/08/17 06:01:56;;;;;;;11.88;10.68;;;;;;;;;;5113877;28;20401;-55
2022/08/17 06:04:25;;;;;;;11.48;10.48;;;;;;;;;;5113804;28;20404;-55
2022/08/17 06:07:06;;;;;;;11.40;10.40;;;;;;;;;;5113490;28;20411;-55
2022/08/17 06:09:37;;;;;;;12.07;10.82;;;;;;;;;;5112676;28;20412;-55
2022/08/17 06:12:11;;;;;;;11.27;10.30;;;;;;;;;;5112774;28;20420;-55
2022/08/17 06:14:45;;;;;;;12.10;10.88;;;;;;;;;;5113194;28;20492;-55
2022/08/17 06:17:13;;;;;;;13.40;10.60;;;;;;;;;;5113576;28;20411;-54
2022/08/17 06:19:40;;;;;;;11.40;10.20;;;;;;;;;;5111526;28;20671;-55
2022/08/17 06:22:08;;;;;;;11.27;10.18;;;;;;;;;;5113297;28;20410;-55
2022/08/17 06:24:35;;;;;;;10.80;9.82;;;;;;;;;;5111378;28;20942;-54
2022/08/17 06:27:06;;;;;;;11.30;10.10;;;;;;;;;;5112091;28;20410;-55
2022/08/17 06:29:35;;;;;;;10.90;9.75;;;;;;;;;;5111368;28;21021;-56
2022/08/17 06:32:02;;;;;;;13.65;9.73;;;;;;;;;;5112942;28;20822;-55
2022/08/17 06:34:28;;;;;;;11.50;10.05;;;;;;;;;;5111711;28;20401;-55
2022/08/17 06:36:59;;;;;;;11.40;9.20;;;;;;;;;;5113107;28;20403;-55
2022/08/17 06:39:35;;;;;;;11.38;10.18;;;;;;;;;;5112772;28;20408;-55
2022/08/17 06:42:09;;;;;;;10.02;9.00;;;;;;;;;;5112969;28;20411;-54
2022/08/17 06:44:37;;;;;;;10.45;8.40;;;;;;;;;;5112729;28;20401;-54
2022/08/17 06:47:07;;;;;;;9.23;8.27;;;;;;;;;;5111954;28;20400;-55
2022/08/17 06:49:39;;;;;;;11.77;8.05;;;;;;;;;;5112367;28;20768;-54
2022/08/17 06:52:11;;;;;;;10.37;7.83;;;;;;;;;;5112677;28;20400;-54
2022/08/17 06:54:41;;;;;;;9.03;8.10;;;;;;;;;;5112634;28;20476;-54
2022/08/17 06:57:13;;;;;;;10.38;8.40;;;;;;;;;;5112426;28;20469;-54
2022/08/17 06:59:43;;;;;;;8.33;7.53;;;;;;;;;;5112558;28;20464;-54
2022/08/17 07:02:12;;;;;;;9.80;7.20;;;;;;;;;;5112366;28;20404;-54
2022/08/17 07:04:38;;;;;;;8.67;7.70;;;;;;;;;;5111976;28;20453;-54
2022/08/17 07:09:56;;;;;;;8.07;6.88;;;;;;;;;;5112409;28;20434;-54
2022/08/17 07:12:23;;;;;;;7.78;6.53;;;;;;;;;;5112164;28;20404;-53
2022/08/17 07:14:52;;;;;;;10.93;6.70;;;;;;;;;;5112177;28;20410;-56
2022/08/17 07:17:19;;;;;;;7.75;6.63;;;;;;;;;;5110092;28;20438;-56
2022/08/17 07:19:47;;;;;;;8.13;6.05;;;;;;;;;;5111544;28;20475;-56
2022/08/17 07:22:19;;;;;;;9.10;6.45;;;;;;;;;;5112524;28;20395;-55
2022/08/17 07:24:47;;;;;;;10.13;6.55;;;;;;;;;;5112246;28;20403;-55
2022/08/17 07:27:15;;;;;;;7.25;6.05;;;;;;;;;;5112149;28;20403;-55
2022/08/17 07:29:43;;;;;;;7.68;5.93;;;;;;;;;;5112118;28;20903;-56
2022/08/17 07:32:10;;;;;;;7.50;5.72;;;;;;;;;;5110734;28;20487;-54
2022/08/17 07:34:51;;;;;;;8.88;5.70;;;;;;;;;;5110028;28;20453;-54
2022/08/17 07:37:18;;;;;;;7.15;5.05;;;;;;;;;;5110004;28;20481;-55
2022/08/17 07:39:44;;;;;;;5.93;5.13;;;;;;;;;;5110916;28;20384;-55
2022/08/17 07:42:10;;;;;;;5.55;5.05;;;;;;;;;;5111726;28;20407;-55
2022/08/17 07:44:45;;;;;;;8.00;4.90;;;;;;;;;;5111135;28;20396;-55
2022/08/17 07:49:59;;;;;;;5.45;4.55;;;;;;;;;;5111016;28;20439;-55
2022/08/17 07:52:28;;;;;;;6.13;4.93;;;;;;;;;;5111293;28;21046;-55
2022/08/17 07:54:54;;;;;;;6.28;4.78;;;;;;;;;;5111203;28;20747;-55
2022/08/17 07:57:28;;;;;;;5.65;4.78;;;;;;;;;;5111360;28;20400;-55
2022/08/17 08:00:08;;;;;;;8.20;5.07;;;;;;;;;;5110745;28;20420;-55
2022/08/17 08:02:39;;;;;;;6.55;4.80;;;;;;;;;;5111349;28;20397;-55
2022/08/17 08:05:11;;;;;;;4.97;4.40;;;;;;;;;;5111412;28;20392;-56
2022/08/17 08:07:38;;;;;;;5.13;4.40;;;;;;;;;;5110881;28;20841;-55
2022/08/17 08:10:07;;;;;;;6.75;4.47;;;;;;;;;;5111403;28;20424;-55
2022/08/17 08:12:35;;;;;;;7.00;4.60;;;;;;;;;;5109592;28;20412;-54
2022/08/17 08:15:03;;;;;;;6.30;4.30;;;;;;;;;;5109703;28;20388;-55
2022/08/17 08:17:35;;;;;;;4.85;4.35;;;;;;;;;;5110961;28;20463;-54
2022/08/17 08:20:03;;;;;;;6.13;4.60;;;;;;;;;;5111227;28;20755;-54
2022/08/17 08:22:34;;;;;;;6.95;4.40;;;;;;;;;;5109943;28;20396;-55
2022/08/17 08:25:07;;;;;;;5.57;4.00;;;;;;;;;;5110664;28;20397;-62
2022/08/17 08:27:38;;;;;;;5.25;4.00;;;;;;;;;;5111010;28;20790;-64
2022/08/17 08:30:07;;;;;;;4.63;4.10;;;;;;;;;;5111097;28;20459;-60
2022/08/17 08:32:47;;;;;;;6.57;4.07;;;;;;;;;;5109827;28;20449;-59
2022/08/17 08:35:17;;;;;;;5.43;3.78;;;;;;;;;;5110996;28;20399;-56
2022/08/17 08:37:45;;;;;;;4.53;3.53;;;;;;;;;;5109352;28;20491;-56
2022/08/17 08:40:19;;;;;;;4.63;3.60;;;;;;;;;;5111469;28;20399;-56
2022/08/17 08:42:49;;;;;;;5.03;4.00;;;;;;;;;;5109334;28;20381;-56
2022/08/17 08:45:19;;;;;;;4.20;3.80;;;;;;;;;;5111136;28;20465;-56
2022/08/17 08:47:56;;;;;;;5.38;3.90;;;;;;;;;;5109476;28;20463;-56
2022/08/17 08:50:26;;;;;;;4.00;3.60;;;;;;;;;;5108143;28;20412;-56
2022/08/17 08:53:01;;;;;;;4.30;3.88;;;;;;;;;;5110796;28;20400;-56
2022/08/17 08:55:33;;;;;;;7.03;3.80;;;;;;;;;;5110746;28;20939;-56
2022/08/17 08:58:00;;;;;;;4.47;3.80;;;;;;;;;;5107904;28;20424;-56
2022/08/17 09:00:27;;;;;;;5.30;4.15;;;;;;;;;;5110278;28;20393;-56
2022/08/17 09:03:03;;;;;;;6.65;4.15;;;;;;;;;;5108944;28;20754;-55
2022/08/17 09:05:36;;;;;;;6.32;3.90;;;;;;;;;;5109596;28;20392;-56
2022/08/17 09:08:04;;;;;;;4.43;3.80;;;;;;;;;;5110707;28;20495;-56
2022/08/17 09:10:33;;;;;;;7.97;3.55;;;;;;;;;;5109255;28;20511;-56
2022/08/17 09:13:05;;;;;;;5.60;4.00;;;;;;;;;;5110540;28;20400;-56
2022/08/17 09:15:33;;;;;;;5.93;4.20;;;;;;;;;;5110286;28;20407;-56
2022/08/17 09:18:03;;;;;;;5.80;4.07;;;;;;;;;;5110579;28;20406;-56
2022/08/17 09:20:32;;;;;;;7.43;4.07;;;;;;;;;;5109350;28;20419;-56
2022/08/17 09:23:01;;;;;;;4.60;3.72;;;;;;;;;;5109329;28;20453;-56
2022/08/17 09:25:30;;;;;;;5.40;3.70;;;;;;;;;;5110539;28;20424;-55
2022/08/17 09:27:58;;;;;;;7.10;4.35;;;;;;;;;;5113291;28;20886;-55
2022/08/17 09:30:25;;;;;;;5.65;3.95;;;;;;;;;;5114737;28;20416;-58
2022/08/17 09:32:54;;;;;;;7.10;3.80;;;;;;;;;;5115065;28;20396;-56
2022/08/17 09:35:23;;;;;;;5.70;3.80;;;;;;;;;;5114694;28;20483;-56
2022/08/17 09:37:52;;;;;;;5.43;3.65;;;;;;;;;;5114640;28;20809;-56
2022/08/17 09:40:22;;;;;;;3.50;3.20;;;;;;;;;;5114710;28;20804;-56
2022/08/17 09:42:49;;;;;;;7.47;3.92;;;;;;;;;;5114693;28;20415;-56
2022/08/17 09:45:26;;;;;;;6.05;3.65;;;;;;;;;;5114720;28;20400;-56
2022/08/17 09:47:55;;;;;;;5.43;3.60;;;;;;;;;;5114820;28;20405;-56
2022/08/17 09:50:26;;;;;;;4.95;3.60;;;;;;;;;;5114347;28;20459;-55
2022/08/17 09:52:53;;;;;;;5.20;3.47;;;;;;;;;;5114539;28;20407;-57
2022/08/17 09:55:20;;;;;;;6.75;3.72;;;;;;;;;;5114399;28;20403;-55
2022/08/17 09:57:50;;;;;;;6.30;3.67;;;;;;;;;;5114576;28;20418;-55
2022/08/17 10:00:20;;;;;;;5.50;3.40;;;;;;;;;;5114322;28;20754;-55
2022/08/17 10:03:01;;;;;;;5.68;3.20;;;;;;;;;;5114609;28;20404;-55
2022/08/17 10:05:32;;;;;;;4.40;3.25;;;;;;;;;;5112371;28;20400;-55
2022/08/17 10:08:01;;;;;;;4.60;3.33;;;;;;;;;;5113874;28;20412;-55
2022/08/17 10:10:29;;;;;;;5.28;3.10;;;;;;;;;;5113435;28;20508;-55
2022/08/17 10:12:59;;;;;;;4.38;3.03;;;;;;;;;;5111623;28;20424;-55
2022/08/17 10:15:33;;;;;;;5.97;2.92;;;;;;;;;;5113529;28;20388;-56
2022/08/17 10:18:10;;;;;;;6.07;3.30;;;;;;;;;;5113919;28;20403;-58
2022/08/17 10:20:41;;;;;;;9.70;3.40;;;;;;;;;;5113319;28;20412;-58
2022/08/17 10:28:31;;;;;;;5.35;2.97;;;;;;;;;;5113354;28;20731;-58
2022/08/17 10:30:59;;;;;;;4.57;3.22;;;;;;;;;;5113327;28;20405;-57
2022/08/17 10:33:27;;;;;;;5.10;3.10;;;;;;;;;;5112624;28;20384;-58
2022/08/17 10:35:57;;;;;;;4.60;3.05;;;;;;;;;;5113486;28;20464;-58
2022/08/17 10:38:30;;;;;;;5.28;3.28;;;;;;;;;;5111854;28;20415;-57
2022/08/17 10:40:58;;;;;;;4.05;3.10;;;;;;;;;;5113074;28;20388;-58
2022/08/17 10:43:37;;;;;;;5.55;3.45;;;;;;;;;;5113255;28;20419;-59
2022/08/17 10:46:07;;;;;;;6.97;3.30;;;;;;;;;;5113330;28;20415;-58
2022/08/17 10:48:35;;;;;;;4.55;3.20;;;;;;;;;;5112801;28;20826;-58
2022/08/17 10:51:07;;;;;;;4.10;3.20;;;;;;;;;;5111286;28;20416;-57
2022/08/17 10:53:49;;;;;;;4.80;3.30;;;;;;;;;;5112408;28;20428;-58
2022/08/17 10:56:21;;;;;;;6.63;3.78;;;;;;;;;;5112907;28;20384;-58
2022/08/17 10:58:48;;;;;;;6.10;3.43;;;;;;;;;;5111569;28;20935;-58
2022/08/17 11:01:14;;;;;;;6.85;3.40;;;;;;;;;;5112892;28;20499;-58
2022/08/17 11:03:53;;;;;;;5.72;3.20;;;;;;;;;;5112757;28;20400;-58
2022/08/17 11:06:23;;;;;;;5.30;3.40;;;;;;;;;;5112857;28;20417;-57
2022/08/17 11:09:06;;;;;;;3.92;3.00;;;;;;;;;;5112471;28;21168;-58
2022/08/17 11:11:51;;;;;;;6.22;3.42;;;;;;;;;;5112700;28;20469;-58
2022/08/17 11:14:25;;;;;;;4.35;3.15;;;;;;;;;;5111563;28;20399;-58
2022/08/17 11:17:00;;;;;;;5.32;3.00;;;;;;;;;;5112637;28;20890;-58
2022/08/17 11:19:37;;;;;;;5.35;3.00;;;;;;;;;;5112675;28;20399;-57
2022/08/17 11:22:15;;;;;;;4.60;3.00;;;;;;;;;;5111238;28;20897;-58
2022/08/17 11:24:46;;;;;;;4.25;3.00;;;;;;;;;;5112358;28;20908;-58
2022/08/17 11:27:21;;;;;;;4.38;3.10;;;;;;;;;;5112690;28;20488;-58
2022/08/17 11:29:50;;;;;;;4.37;3.00;;;;;;;;;;5112385;28;20424;-58
2022/08/17 11:32:29;;;;;;;4.95;3.10;;;;;;;;;;5112591;28;20762;-57
2022/08/17 11:35:06;;;;;;;5.05;3.00;;;;;;;;;;5112311;28;20439;-58
2022/08/17 11:37:50;;;;;;;5.60;2.80;;;;;;;;;;5110954;28;20870;-57
2022/08/17 11:40:27;;;;;;;6.97;2.97;;;;;;;;;;5112055;28;20388;-57
2022/08/17 11:43:06;;;;;;;9.27;3.17;;;;;;;;;;5112352;28;20450;-58
2022/08/17 11:45:56;;;;;;;3.90;2.90;;;;;;;;;;5112016;28;20404;-58
2022/08/17 11:54:04;;;;;;;5.00;2.97;;;;;;;;;;5112105;28;20384;-58
2022/08/17 11:56:40;;;;;;;4.47;2.92;;;;;;;;;;5110767;28;20396;-58
2022/08/17 11:59:24;;;;;;;3.45;3.00;;;;;;;;;;5111877;28;20411;-58
2022/08/17 12:01:51;;;;;;;4.50;2.92;;;;;;;;;;5111085;28;20380;-58
2022/08/17 12:04:18;;;;;;;5.00;3.10;;;;;;;;;;5111265;28;20396;-58
2022/08/17 12:06:47;;;;;;;6.23;3.00;;;;;;;;;;5111707;28;20400;-57
2022/08/17 12:09:16;;;;;;;3.38;2.97;;;;;;;;;;5111667;28;20408;-58
2022/08/17 12:11:46;;;;;;;5.00;3.00;;;;;;;;;;5110933;28;20416;-58
2022/08/17 12:14:14;;;;;;;5.10;3.33;;;;;;;;;;5111614;28;20453;-57
2022/08/17 12:16:42;;;;;;;4.30;3.30;;;;;;;;;;5111243;28;20407;-57
2022/08/17 12:19:16;;;;;;;4.68;2.80;;;;;;;;;;5111277;28;20388;-57
2022/08/17 12:21:47;;;;;;;3.20;2.90;;;;;;;;;;5111384;28;20461;-58
2022/08/17 12:24:21;;;;;;;5.43;3.05;;;;;;;;;;5111455;28;20402;-57
2022/08/17 12:26:53;;;;;;;4.90;3.10;;;;;;;;;;5111099;28;20431;-57
2022/08/17 12:29:19;;;;;;;3.83;3.15;;;;;;;;;;5111341;28;20408;-57
2022/08/17 12:31:46;;;;;;;5.82;3.10;;;;;;;;;;5110848;28;20460;-57
2022/08/17 12:34:15;;;;;;;4.55;3.20;;;;;;;;;;5110884;28;20400;-58
2022/08/17 12:36:41;;;;;;;6.32;3.20;;;;;;;;;;5111014;28;20480;-57
2022/08/17 12:39:08;;;;;;;5.97;3.17;;;;;;;;;;5110978;28;20881;-56
2022/08/17 12:41:37;;;;;;;4.10;3.10;;;;;;;;;;5111063;28;20396;-57
2022/08/17 12:44:08;;;;;;;5.17;3.30;;;;;;;;;;5109706;28;20401;-57
2022/08/17 12:46:44;;;;;;;5.43;3.15;;;;;;;;;;5111309;28;20417;-57
2022/08/17 12:49:11;;;;;;;4.60;3.22;;;;;;;;;;5109209;28;20400;-57
2022/08/17 12:51:41;;;;;;;5.82;3.10;;;;;;;;;;5110148;28;20491;-57
2022/08/17 12:54:22;;;;;;;4.80;3.20;;;;;;;;;;5110269;28;20456;-57
2022/08/17 12:56:48;;;;;;;4.87;3.20;;;;;;;;;;5110826;28;20481;-57
2022/08/17 12:59:17;;;;;;;5.50;3.23;;;;;;;;;;5110875;28;20397;-57
2022/08/17 13:01:44;;;;;;;4.70;3.17;;;;;;;;;;5110113;28;20397;-56
2022/08/17 13:04:12;;;;;;;5.75;3.10;;;;;;;;;;5110525;28;20912;-57
2022/08/17 13:06:45;;;;;;;6.25;2.90;;;;;;;;;;5110593;28;20751;-57
2022/08/17 13:09:12;;;;;;;3.22;2.80;;;;;;;;;;5110315;28;20413;-57
2022/08/17 13:11:45;;;;;;;5.80;3.20;;;;;;;;;;5110478;28;20910;-57
2022/08/17 13:14:11;;;;;;;6.95;3.30;;;;;;;;;;5110420;28;20479;-55
2022/08/17 13:16:39;;;;;;;6.63;3.40;;;;;;;;;;5110104;28;20400;-56
2022/08/17 13:19:06;;;;;;;6.68;3.53;;;;;;;;;;5110313;28;20388;-57
2022/08/17 13:21:32;;;;;;;8.80;3.30;;;;;;;;;;5108780;28;20447;-57
2022/08/17 13:24:01;;;;;;;4.80;3.10;;;;;;;;;;5110559;28;20425;-57
2022/08/17 13:26:29;;;;;;;5.43;3.03;;;;;;;;;;5110341;28;20905;-57
2022/08/17 13:28:55;;;;;;;5.40;2.85;;;;;;;;;;5110318;28;20441;-57
2022/08/17 13:31:22;;;;;;;4.20;2.80;;;;;;;;;;5109067;28;20447;-57
2022/08/17 13:33:50;;;;;;;5.80;2.80;;;;;;;;;;5110228;28;20430;-58
2022/08/17 13:36:28;;;;;;;6.95;3.28;;;;;;;;;;5110400;28;20420;-58
2022/08/17 13:39:04;;;;;;;6.22;3.35;;;;;;;;;;5110535;28;20414;-58
2022/08/17 13:41:32;;;;;;;5.20;3.10;;;;;;;;;;5109054;28;20392;-58
2022/08/17 13:43:58;;;;;;;6.93;3.10;;;;;;;;;;5110570;28;20457;-58
2022/08/17 13:46:27;;;;;;;6.65;3.22;;;;;;;;;;5108957;28;20407;-56
2022/08/17 13:48:58;;;;;;;4.88;3.17;;;;;;;;;;5109971;28;20791;-57
2022/08/17 13:51:26;;;;;;;4.15;2.72;;;;;;;;;;5110139;28;20941;-57
2022/08/17 13:53:58;;;;;;;4.88;2.95;;;;;;;;;;5109916;28;20392;-57
2022/08/17 13:56:26;;;;;;;4.00;3.00;;;;;;;;;;5110044;28;20388;-58
2022/08/17 13:58:55;;;;;;;5.23;2.83;;;;;;;;;;5109937;28;20486;-58
2022/08/17 14:01:28;;;;;;;4.93;2.83;;;;;;;;;;5109503;28;20770;-58
2022/08/17 14:03:54;;;;;;;5.75;2.85;;;;;;;;;;5108424;28;20403;-57
2022/08/17 14:06:23;;;;;;;5.30;3.00;;;;;;;;;;5109906;28;20453;-56
2022/08/17 14:08:50;;;;;;;4.85;2.85;;;;;;;;;;5109492;28;20420;-57
2022/08/17 14:11:17;;;;;;;7.07;3.00;;;;;;;;;;5109357;28;20412;-58
2022/08/17 14:13:44;;;;;;;5.13;2.78;;;;;;;;;;5109939;28;20401;-57
2022/08/17 14:16:10;;;;;;;4.55;2.60;;;;;;;;;;5112330;28;20395;-58
2022/08/17 14:18:36;;;;;;;3.53;2.90;;;;;;;;;;5113692;28;20475;-57
2022/08/17 14:21:03;;;;;;;5.15;3.00;;;;;;;;;;5113997;28;20750;-58
2022/08/17 14:23:31;;;;;;;9.65;2.90;;;;;;;;;;5113399;28;20457;-58
2022/08/17 14:25:58;;;;;;;5.38;3.05;;;;;;;;;;5113487;28;20405;-58
2022/08/17 14:28:24;;;;;;;4.40;2.70;;;;;;;;;;5113093;28;20426;-58
2022/08/17 14:30:50;;;;;;;5.18;2.63;;;;;;;;;;5112109;28;20801;-58
2022/08/17 14:33:23;;;;;;;4.97;2.75;;;;;;;;;;5113640;28;20399;-57
2022/08/17 14:35:52;;;;;;;4.55;2.80;;;;;;;;;;5113010;28;20819;-59
2022/08/17 14:38:18;;;;;;;3.78;2.70;;;;;;;;;;5113422;28;20439;-59
2022/08/17 14:40:46;;;;;;;5.20;3.10;;;;;;;;;;5113511;28;20415;-59
2022/08/17 14:43:14;;;;;;;3.70;2.80;;;;;;;;;;5113002;28;20408;-58
2022/08/17 14:45:40;;;;;;;5.70;2.63;;;;;;;;;;5111747;28;20478;-58
2022/08/17 14:48:09;;;;;;;6.20;2.97;;;;;;;;;;5113460;28;20388;-59
2022/08/17 14:50:37;;;;;;;3.20;2.90;;;;;;;;;;5111616;28;20408;-58
2022/08/17 14:53:03;;;;;;;3.90;2.72;;;;;;;;;;5113343;28;20450;-58
2022/08/17 14:55:29;;;;;;;4.95;2.72;;;;;;;;;;5112921;28;20431;-59
2022/08/17 14:57:57;;;;;;;3.60;2.75;;;;;;;;;;5112717;28;20469;-57
2022/08/17 15:00:23;;;;;;;4.27;2.90;;;;;;;;;;5112106;28;20396;-59
2022/08/17 15:02:53;;;;;;;6.88;3.35;;;;;;;;;;5112789;28;20404;-58
2022/08/17 15:05:19;;;;;;;5.28;2.97;;;;;;;;;;5112887;28;20436;-59
2022/08/17 15:07:45;;;;;;;4.75;2.70;;;;;;;;;;5112171;28;20890;-59
2022/08/17 15:10:12;;;;;;;4.00;2.80;;;;;;;;;;5111497;28;20396;-59
2022/08/17 15:12:38;;;;;;;4.10;2.78;;;;;;;;;;5112737;28;20397;-58
2022/08/17 15:15:07;;;;;;;3.70;2.90;;;;;;;;;;5112627;28;20939;-59